Latest Weather Observations for Yulara

IDD60801

Issued at 12:01 pm CST Sunday 21 December 2014 (issued every 30 minutes, with the page automatically refreshed every 10 minutes)

About weather observations | Map of weather stations | Latest weather observations for NT | Other Formats
Station Details ID: 015635 Name: YULARA AIRPORT Lat: -25.19 Lon: 130.97 Height: 492.0 m
Data from the previous 72 hours. | See also: Recent months at Yulara
Date/Time
CST
Temp
°C
App
Temp
°C
Dew
Point
Rel
Hum
%
Delta-T
°C
Wind Press
QNH
hPa
Press
MSL
hPa
Rain
since 9 am
mm
Dir
 
Spd
km/h
Gust
km/h
Spd
kts
Gust
kts
21/12:00pm 33.4 33.3 14.0 31 12.1 NNE 7 17 4 9 1011.4 1007.8 0.2
21/11:30am 32.8 33.5 14.4 33 11.5 WNW 4 13 2 7 1011.7 1008.1 0.2
21/11:00am 31.4 31.3 15.0 37 10.3 W 9 15 5 8 1012.2 1008.7 0.2
21/10:30am 30.0 30.5 17.5 47 8.1 W 11 19 6 10 1012.6 1009.0 0.2
21/10:00am 28.4 30.4 19.1 57 6.1 WSW 7 13 4 7 1012.8 1009.2 0.0
21/09:30am 26.8 29.6 20.4 68 4.3 WSW 6 13 3 7 1012.9 1009.3 0.0
21/09:00am 25.5 28.8 20.7 75 3.2 SSW 4 20 2 11 1012.8 1009.2 3.8
21/08:30am 25.1 26.3 19.9 73 3.4 WSW 13 17 7 9 1013.2 1009.6 3.8
21/08:00am 24.9 26.6 20.2 75 3.1 WSW 11 17 6 9 1013.1 1009.5 3.8
21/07:30am 23.3 25.2 20.6 85 1.8 SW 11 15 6 8 1012.5 1008.9 3.8
21/07:00am 24.5 27.3 18.9 71 3.6 ESE 2 9 1 5 1011.7 1008.1 3.8
21/06:40am 23.1 25.3 19.5 80 2.3 ESE 7 13 4 7 1012.0 1008.5 3.8
21/06:30am 22.9 25.5 19.3 80 2.3 - 4 20 2 11 1011.9 1008.4 3.6
21/06:21am 22.5 20.9 18.3 77 2.7 WSW 24 39 13 21 1012.1 1008.6 3.4
21/06:00am 24.2 28.4 20.9 82 2.2 CALM 0 0 0 0 1010.9 1007.3 3.0
21/05:30am 24.3 27.4 18.7 71 3.6 CALM 0 0 0 0 1010.2 1006.7 3.0
21/05:00am 24.1 26.2 19.4 75 3.1 SW 7 7 4 4 1010.5 1006.9 3.0
21/04:30am 24.0 26.2 19.7 77 2.8 SW 7 9 4 5 1010.4 1006.8 3.0
21/04:00am 23.6 26.1 20.3 82 2.2 WSW 7 9 4 5 1010.2 1006.7 3.0
21/03:30am 24.2 28.2 20.5 80 2.5 CALM 0 0 0 0 1009.9 1006.3 3.0
21/03:00am 24.1 28.0 20.4 80 2.5 CALM 0 6 0 3 1010.0 1006.5 3.0
21/02:30am 24.3 28.3 20.6 80 2.5 CALM 0 0 0 0 1010.2 1006.7 3.0
21/02:00am 24.9 28.7 20.2 75 3.1 CALM 0 0 0 0 1009.9 1006.3 3.0
21/01:30am 25.4 27.8 18.8 67 4.3 ESE 4 11 2 6 1010.1 1006.6 3.0
21/01:00am 26.0 26.2 16.8 57 5.8 ESE 11 15 6 8 1010.1 1006.6 3.0
21/12:30am 26.9 27.0 15.6 50 7.0 ESE 9 19 5 10 1010.5 1006.9 3.0
21/12:00am 26.1 26.9 17.2 58 5.7 S 9 11 5 6 1010.6 1007.0 3.0
 
Date/Time
CST
Temp
°C
App
Temp
°C
Dew
Point
Rel
Hum
%
Delta-T
°C
Wind Press
QNH
hPa
Press
MSL
hPa
Rain
since 9 am
mm
Dir
 
Spd
km/h
Gust
km/h
Spd
kts
Gust
kts
20/11:30pm 26.0 26.7 17.1 58 5.7 SW 9 13 5 7 1011.0 1007.4 3.0
20/11:00pm 26.0 26.9 17.6 60 5.4 SSW 9 11 5 6 1011.5 1007.9 3.0
20/10:30pm 25.5 28.6 18.7 66 4.4 CALM 0 0 0 0 1011.5 1007.9 3.0
20/10:00pm 26.1 27.5 17.7 60 5.4 S 7 9 4 5 1011.6 1008.0 3.0
20/09:30pm 26.6 27.4 17.4 57 5.9 SSE 9 11 5 6 1011.4 1007.8 3.0
20/09:00pm 26.5 25.7 17.0 56 6.0 SE 17 20 9 11 1011.4 1007.8 3.0
20/08:30pm 26.7 25.6 17.2 56 6.1 SE 19 28 10 15 1011.7 1008.1 3.0
20/08:00pm 26.4 23.7 16.6 55 6.2 E 26 35 14 19 1012.1 1008.6 3.0
20/07:30pm 27.5 24.5 15.8 48 7.3 ENE 26 37 14 20 1012.3 1008.8 3.0
20/07:00pm 28.6 27.2 15.5 45 8.2 ESE 17 30 9 16 1011.9 1008.4 3.0
20/06:30pm 28.3 26.2 18.1 54 6.6 ENE 26 41 14 22 1011.6 1008.0 3.0
20/06:00pm 29.5 27.5 18.3 51 7.3 SW 26 39 14 21 1010.1 1006.6 3.0
20/05:30pm 29.2 28.5 19.5 56 6.4 SSW 22 33 12 18 1010.1 1006.6 3.0
20/05:08pm 29.1 27.9 20.0 58 6.1 WSW 26 39 14 21 1010.0 1006.5 3.0
20/05:00pm 28.2 28.2 21.0 65 4.9 WSW 22 30 12 16 1009.9 1006.3 3.0
20/04:52pm 26.5 24.9 21.9 76 3.1 SW 33 52 18 28 1009.7 1006.1 3.0
20/04:45pm 26.9 23.0 19.5 64 4.9 WSW 39 52 21 28 1009.4 1005.8 1.2
20/04:30pm 32.9 28.5 16.7 38 10.5 WSW 35 50 19 27 1009.4 1005.8 0.0
20/04:18pm 34.6 31.1 15.5 32 12.2 W 28 50 15 27 1009.2 1005.6 0.0
20/04:00pm 38.2 34.8 10.5 19 16.7 W 19 32 10 17 1009.1 1005.5 0.0
20/03:30pm 37.5 33.4 10.0 19 16.4 NW 22 30 12 16 1009.4 1005.8 0.0
20/03:00pm 39.0 35.0 10.4 18 17.3 NNW 22 33 12 18 1009.7 1006.1 0.0
20/02:30pm 37.1 34.4 10.4 20 16.0 NW 15 26 8 14 1010.4 1006.8 0.0
20/02:11pm 36.3 32.7 10.5 21 15.4 NW 20 41 11 22 1010.8 1007.2 0.0
20/02:00pm 36.3 33.3 10.5 21 15.4 WNW 17 22 9 12 1011.0 1007.4 0.0
20/01:30pm 36.9 34.2 10.2 20 15.9 N 15 30 8 16 1011.5 1007.9 0.0
20/01:00pm 36.8 34.8 10.2 20 15.9 NE 11 17 6 9 1011.9 1008.4 0.0
20/12:30pm 38.0 34.0 10.4 19 16.6 NW 22 37 12 20 1012.5 1008.9 0.0
20/12:00pm 36.4 33.8 10.6 21 15.5 NNW 15 28 8 15 1013.1 1009.5 0.0
20/11:30am 36.9 34.8 11.0 21 15.6 NNE 13 22 7 12 1013.6 1010.0 0.0
20/11:00am 35.2 31.7 10.3 22 14.8 NNE 19 28 10 15 1014.0 1010.5 0.0
20/10:30am 33.8 30.3 11.0 25 13.6 N 20 33 11 18 1014.4 1010.9 0.0
20/10:00am 33.3 29.6 10.0 24 13.6 N 20 32 11 17 1014.4 1010.9 0.0
20/09:30am 33.3 30.1 11.2 26 13.2 NNE 19 24 10 13 1014.7 1011.1 0.0
20/09:00am 32.2 29.2 10.8 27 12.6 ENE 17 28 9 15 1015.1 1011.5 0.0
20/08:30am 30.9 27.9 10.8 29 11.8 E 17 22 9 12 1015.1 1011.5 0.0
20/08:00am 29.5 25.8 10.1 30 11.2 E 20 24 11 13 1015.0 1011.4 0.0
20/07:30am 28.3 25.1 10.0 32 10.5 E 17 22 9 12 1014.7 1011.1 0.0
20/07:00am 28.5 25.0 10.2 32 10.5 E 19 24 10 13 1014.3 1010.8 0.0
20/06:30am 26.8 24.5 10.5 36 9.4 E 13 17 7 9 1013.9 1010.4 0.0
20/06:00am 26.3 24.0 10.5 37 9.0 E 13 17 7 9 1013.5 1009.9 0.0
20/05:30am 26.5 24.1 10.2 36 9.3 ESE 13 17 7 9 1013.1 1009.5 0.0
20/05:00am 26.9 23.8 10.2 35 9.5 ESE 17 22 9 12 1012.9 1009.3 0.0
20/04:30am 26.9 25.3 10.2 35 9.5 ESE 9 15 5 8 1013.2 1009.6 0.0
20/04:00am 27.5 25.5 10.2 34 9.9 ESE 11 15 6 8 1013.1 1009.5 0.0
20/03:30am 28.4 25.9 9.6 31 10.7 ESE 13 17 7 9 1013.2 1009.6 0.0
20/03:00am 29.1 25.9 9.8 30 11.1 E 17 20 9 11 1013.1 1009.5 0.0
20/02:30am 29.6 26.3 9.7 29 11.4 E 17 20 9 11 1013.4 1009.8 0.0
20/02:00am 29.8 26.2 9.9 29 11.5 E 19 24 10 13 1013.3 1009.7 0.0
20/01:30am 30.3 26.9 9.2 27 12.0 E 17 24 9 13 1013.9 1010.4 0.0
20/01:00am 30.9 27.5 9.2 26 12.4 E 17 20 9 11 1014.1 1010.6 0.0
20/12:30am 31.3 27.8 8.9 25 12.8 E 17 24 9 13 1013.9 1010.4 0.0
20/12:00am 32.2 27.7 8.4 23 13.5 E 22 30 12 16 1013.7 1010.2 0.0
 
Date/Time
CST
Temp
°C
App
Temp
°C
Dew
Point
Rel
Hum
%
Delta-T
°C
Wind Press
QNH
hPa
Press
MSL
hPa
Rain
since 9 am
mm
Dir
 
Spd
km/h
Gust
km/h
Spd
kts
Gust
kts
19/11:30pm 32.3 28.7 8.5 23 13.6 ESE 17 24 9 13 1013.9 1010.4 0.0
19/11:00pm 31.8 29.0 9.9 26 12.7 ESE 15 19 8 10 1013.7 1010.2 0.0
19/10:30pm 31.8 29.9 10.5 27 12.5 ESE 11 17 6 9 1013.3 1009.7 0.0
19/10:00pm 32.3 30.4 10.4 26 12.9 ESE 11 13 6 7 1013.2 1009.6 0.0
19/09:30pm 32.9 31.5 10.9 26 13.0 ESE 9 13 5 7 1013.3 1009.7 0.0
19/09:00pm 33.1 31.3 11.0 26 13.1 SE 11 13 6 7 1013.2 1009.6 0.0
19/08:30pm 33.0 31.4 11.5 27 12.9 SE 11 13 6 7 1012.9 1009.3 0.0
19/08:00pm 33.9 32.6 11.1 25 13.6 SE 9 13 5 7 1012.6 1009.0 0.0
19/07:30pm 35.1 32.0 10.2 22 14.8 SE 17 24 9 13 1012.2 1008.7 0.0
19/07:00pm 36.5 34.1 9.9 20 15.8 ESE 13 24 7 13 1012.0 1008.5 0.0
19/06:30pm 36.7 34.3 10.1 20 15.8 SSE 13 20 7 11 1012.1 1008.6 0.0
19/06:00pm 36.2 33.9 10.4 21 15.4 SSE 13 26 7 14 1012.1 1008.6 0.0
19/05:30pm 37.3 36.4 11.3 21 15.8 SW 7 17 4 9 1012.1 1008.6 0.0
19/05:00pm 36.7 34.9 10.8 21 15.6 E 11 19 6 10 1012.1 1008.6 0.0
19/04:30pm 37.2 37.8 11.9 22 15.5 CALM 0 6 0 3 1012.7 1009.1 0.0
19/04:00pm 36.4 37.0 11.9 23 14.9 CALM 0 0 0 0 1013.2 1009.6 0.0
19/03:30pm 35.9 33.9 11.5 23 14.8 ENE 13 24 7 13 1013.7 1010.2 0.0
19/03:00pm 36.4 35.9 11.9 23 14.9 W 6 13 3 7 1014.0 1010.5 0.0
19/02:30pm 35.7 34.8 12.6 25 14.2 S 9 17 5 9 1014.3 1010.8 0.0
19/02:00pm 35.4 35.0 13.0 26 13.8 SSE 7 17 4 9 1014.9 1011.3 0.0
19/01:30pm 34.8 34.4 13.0 26 13.4 NNW 7 17 4 9 1015.3 1011.7 0.0
19/01:00pm 33.7 32.6 13.2 29 12.6 N 11 17 6 9 1015.7 1012.2 0.0
19/12:30pm 33.7 32.6 14.2 30 12.2 ESE 13 20 7 11 1016.1 1012.6 0.0
19/12:00pm 33.1 31.0 13.7 31 12.0 NNE 17 24 9 13 1016.5 1013.0 0.0
19/11:30am 32.1 30.5 13.8 33 11.3 NE 15 24 8 13 1017.0 1013.4 0.0
19/11:00am 32.7 31.7 15.7 36 10.8 ENE 15 24 8 13 1017.1 1013.5 0.0
19/10:30am 32.0 30.3 14.6 34 10.9 E 17 24 9 13 1017.4 1013.9 0.0
19/10:00am 30.6 28.4 13.4 35 10.5 ESE 17 24 9 13 1017.5 1014.0 0.0
19/09:30am 29.7 27.0 13.0 35 10.1 ESE 19 28 10 15 1017.5 1014.0 0.0
19/09:00am 29.2 26.2 12.6 36 9.9 ESE 20 30 11 16 1017.3 1013.7 0.0
19/08:30am 28.4 25.5 12.3 37 9.6 SE 19 24 10 13 1017.2 1013.6 0.0
19/08:00am 27.2 23.8 12.4 40 8.8 SE 22 32 12 17 1016.8 1013.2 0.0
19/07:30am 27.0 23.0 13.0 42 8.4 SE 26 35 14 19 1016.4 1012.9 0.0
19/07:00am 25.1 23.8 14.8 52 6.3 SE 15 22 8 12 1016.3 1012.8 0.0
19/06:30am 24.2 24.7 16.5 62 4.8 SSE 9 13 5 7 1016.1 1012.6 0.0
19/06:00am 22.9 25.1 19.7 82 2.1 S 7 9 4 5 1015.8 1012.3 0.0
19/05:30am 22.7 25.0 19.9 84 1.8 S 7 9 4 5 1015.5 1011.9 0.0
19/05:00am 23.2 26.5 19.1 78 2.7 CALM 0 0 0 0 1015.2 1011.6 0.0
19/04:30am 23.1 25.3 19.5 80 2.3 SSW 7 9 4 5 1014.9 1011.3 0.0
19/04:00am 24.0 27.3 19.1 74 3.2 CALM 0 0 0 0 1014.7 1011.1 0.0
19/03:30am 24.5 27.8 19.1 72 3.5 CALM 0 0 0 0 1014.3 1010.8 0.0
19/03:00am 24.2 27.5 19.1 73 3.3 CALM 0 6 0 3 1014.1 1010.6 0.0
19/02:30am 25.3 27.0 18.5 66 4.4 SE 7 9 4 5 1013.9 1010.4 0.0
19/02:00am 26.0 27.6 18.2 62 5.0 SE 7 11 4 6 1013.9 1010.4 0.0
19/01:30am 26.5 27.5 17.8 58 5.6 SE 9 11 5 6 1014.1 1010.6 0.0
19/01:00am 27.2 27.4 17.7 56 6.1 SE 13 19 7 10 1014.2 1010.7 0.0
19/12:30am 27.6 28.2 17.7 54 6.4 SE 11 17 6 9 1014.4 1010.9 0.0
19/12:00am 28.1 27.9 17.6 53 6.8 SSE 15 19 8 10 1014.4 1010.9 0.0
 
Date/Time
CST
Temp
°C
App
Temp
°C
Dew
Point
Rel
Hum
%
Delta-T
°C
Wind Press
QNH
hPa
Press
MSL
hPa
Rain
since 9 am
mm
Dir
 
Spd
km/h
Gust
km/h
Spd
kts
Gust
kts
18/11:30pm 28.2 28.4 17.7 53 6.8 SSE 13 19 7 10 1014.5 1011.0 0.0
18/11:00pm 28.5 29.4 18.3 54 6.6 SSE 11 15 6 8 1014.7 1011.1 0.0
18/10:30pm 28.8 30.2 18.6 54 6.7 SSE 9 13 5 7 1014.3 1010.8 0.0
18/10:00pm 29.3 30.2 18.4 51 7.1 SE 11 13 6 7 1014.0 1010.5 0.0
18/09:30pm 30.0 30.9 18.4 49 7.6 SE 11 15 6 8 1013.4 1009.8 0.0
18/09:00pm 30.5 30.4 17.9 47 8.2 SE 15 19 8 10 1012.7 1009.1 0.0
18/08:30pm 31.0 30.6 18.0 45 8.5 SE 17 20 9 11 1012.5 1008.9 0.0
18/08:00pm 31.8 31.3 17.7 43 9.2 SE 17 24 9 13 1012.2 1008.7 0.0
18/07:30pm 32.6 31.3 17.2 39 10.0 ESE 20 30 11 16 1012.0 1008.5 0.0
18/07:00pm 33.3 31.9 17.0 37 10.6 ESE 20 32 11 17 1011.7 1008.1 0.0
18/06:30pm 33.9 33.1 17.2 37 10.9 SSE 17 24 9 13 1011.6 1008.0 0.0
18/06:00pm 33.7 33.2 17.0 37 10.9 SSE 15 24 8 13 1011.4 1007.8 0.0
18/05:30pm 34.4 33.6 17.2 36 11.2 SSE 17 26 9 14 1011.2 1007.6 0.0
18/05:00pm 35.0 35.6 16.8 34 11.8 SSE 9 19 5 10 1011.1 1007.5 0.0
18/04:30pm 33.8 33.6 16.6 35 11.1 S 13 26 7 14 1011.4 1007.8 0.0
18/04:00pm 34.6 35.2 17.8 37 11.1 SSW 11 20 6 11 1011.6 1008.0 0.0
18/03:30pm 33.6 33.6 17.3 37 10.6 SSW 13 20 7 11 1011.9 1008.4 0.0
18/03:00pm 33.7 35.1 18.6 40 10.0 S 9 19 5 10 1012.1 1008.6 0.0
18/02:30pm 32.5 32.3 16.8 39 10.1 SSE 13 22 7 12 1012.3 1008.8 0.0
18/02:00pm 32.6 34.1 17.6 40 9.8 SE 6 13 3 7 1012.6 1009.0 0.0
18/01:30pm 31.3 31.9 17.6 44 8.9 S 11 22 6 12 1012.8 1009.2 0.0
18/01:00pm 31.8 32.5 18.0 43 9.0 WSW 11 33 6 18 1013.0 1009.4 0.0
18/12:30pm 31.4 33.4 19.1 48 8.2 SE 7 15 4 8 1013.3 1009.7 0.0

Other Formats:

Comma delimited format used in spreadsheet applications
http://www.bom.gov.au/fwo/IDD60801/IDD60801.94462.axf

JavaScript Object Notation format (JSON) in row-major order
http://www.bom.gov.au/fwo/IDD60801/IDD60801.94462.json